createdAt,value
2022-08-14T00:00:32.538Z,90.42
2022-08-14T00:01:32.531Z,90.62
2022-08-14T00:02:32.533Z,90.11
2022-08-14T00:03:32.500Z,89.91
2022-08-14T00:04:41.980Z,88.60
2022-08-14T00:05:33.461Z,90.01
2022-08-14T00:06:32.454Z,90.52
2022-08-14T00:07:32.432Z,90.32
2022-08-14T00:08:44.393Z,90.92
2022-08-14T00:09:33.425Z,89.91
2022-08-14T00:10:51.778Z,90.52
2022-08-14T00:11:33.382Z,90.32
2022-08-14T00:12:33.726Z,89.81
2022-08-14T00:13:33.363Z,90.32
2022-08-14T00:14:32.344Z,90.22
2022-08-14T00:15:43.675Z,90.62
2022-08-14T00:16:41.169Z,90.11
2022-08-14T00:17:38.033Z,91.02
2022-08-14T00:19:18.564Z,90.52
2022-08-14T00:19:33.277Z,90.82
2022-08-14T00:20:36.057Z,91.63
2022-08-14T00:21:33.256Z,92.23
2022-08-14T00:22:56.697Z,92.54
2022-08-14T00:23:33.498Z,92.58
2022-08-14T00:24:32.227Z,92.88
2022-08-14T00:25:42.525Z,92.98
2022-08-14T00:26:33.188Z,92.68
2022-08-14T00:27:35.326Z,92.38
2022-08-14T00:28:35.244Z,92.02
2022-08-14T00:29:32.928Z,91.71
2022-08-14T00:30:33.138Z,92.32
2022-08-14T00:31:44.181Z,92.82
2022-08-14T00:32:56.273Z,93.02
2022-08-14T00:33:50.867Z,92.42
2022-08-14T00:34:37.896Z,92.02
2022-08-14T00:36:36.543Z,91.82
2022-08-14T00:36:37.372Z,91.82
2022-08-14T00:37:33.051Z,92.12
2022-08-14T00:38:34.650Z,92.52
2022-08-14T00:39:32.109Z,91.51
2022-08-14T00:40:35.395Z,90.41
2022-08-14T00:41:31.993Z,91.21
2022-08-14T00:43:02.949Z,91.51
2022-08-14T00:43:32.974Z,90.70
2022-08-14T00:44:33.320Z,91.21
2022-08-14T00:45:31.957Z,92.22
2022-08-14T00:46:33.017Z,92.02
2022-08-14T00:47:31.945Z,92.42
2022-08-14T00:48:34.734Z,93.13
2022-08-14T00:49:37.918Z,93.02
2022-08-14T00:50:32.876Z,93.02
2022-08-14T00:51:37.657Z,92.42
2022-08-14T00:52:32.864Z,92.12
2022-08-14T00:53:31.837Z,92.62
2022-08-14T00:54:31.818Z,92.82
2022-08-14T00:55:31.808Z,92.86
2022-08-14T00:56:31.798Z,93.07
2022-08-14T00:57:31.798Z,93.27
2022-08-14T00:58:32.450Z,93.17
2022-08-14T00:59:31.759Z,92.86
2022-08-14T01:00:37.068Z,93.17
2022-08-14T01:01:32.864Z,92.66
2022-08-14T01:02:32.433Z,92.71
2022-08-14T01:03:31.706Z,92.41
2022-08-14T01:04:37.780Z,92.06
2022-08-14T01:05:50.661Z,92.10
2022-08-14T01:06:34.375Z,92.10
2022-08-14T01:07:47.225Z,91.09
2022-08-14T01:08:52.091Z,91.35
2022-08-14T01:09:32.625Z,91.80
2022-08-14T01:10:37.513Z,91.76
2022-08-14T01:11:36.058Z,92.10
2022-08-14T01:12:31.593Z,92.46
2022-08-14T01:13:42.186Z,92.97
2022-08-14T01:14:32.570Z,93.32
2022-08-14T01:15:57.605Z,93.62
2022-08-14T01:16:32.529Z,93.92
2022-08-14T01:17:31.555Z,93.72
2022-08-14T01:18:31.505Z,93.32
2022-08-14T01:19:31.496Z,92.91
2022-08-14T01:20:31.476Z,92.30
2022-08-14T01:21:31.466Z,91.90
2022-08-14T01:22:31.456Z,92.71
2022-08-14T01:23:41.843Z,92.61
2022-08-14T01:24:34.351Z,93.32
2022-08-14T01:25:31.415Z,93.21
2022-08-14T01:26:34.743Z,92.50
2022-08-14T01:27:31.458Z,92.71
2022-08-14T01:28:46.536Z,91.90
2022-08-14T01:29:59.094Z,92.00
2022-08-14T01:30:36.561Z,92.10
2022-08-14T01:31:36.936Z,90.99
2022-08-14T01:32:35.542Z,90.69
2022-08-14T01:34:00.298Z,91.09
2022-08-14T01:35:18.267Z,91.39
2022-08-14T01:36:05.157Z,91.39
2022-08-14T01:36:32.281Z,92.00
2022-08-14T01:37:31.497Z,92.91
2022-08-14T01:38:31.252Z,92.10
2022-08-14T01:39:32.289Z,91.60
2022-08-14T01:40:33.219Z,91.19
2022-08-14T01:41:32.203Z,90.79
2022-08-14T01:42:36.094Z,90.59
2022-08-14T01:43:35.799Z,91.09
2022-08-14T01:45:41.081Z,91.60
2022-08-14T01:46:40.355Z,92.50
2022-08-14T01:47:40.365Z,92.05
2022-08-14T01:48:40.327Z,92.50
2022-08-14T01:49:46.028Z,92.81
2022-08-14T01:50:41.296Z,92.61
2022-08-14T01:51:40.991Z,91.94
2022-08-14T01:52:58.372Z,92.45
2022-08-14T01:53:41.261Z,92.85
2022-08-14T01:54:40.248Z,92.14
2022-08-14T01:55:40.647Z,91.24
2022-08-14T01:56:40.231Z,91.64
2022-08-14T01:57:56.588Z,92.25
2022-08-14T01:58:57.176Z,93.46
2022-08-14T01:59:43.835Z,93.66
2022-08-14T02:00:41.119Z,92.96
2022-08-14T02:01:41.766Z,93.56
2022-08-14T02:02:40.140Z,93.56
2022-08-14T02:03:40.294Z,92.45
2022-08-14T02:04:55.995Z,92.14
2022-08-14T02:05:41.101Z,92.45
2022-08-14T02:06:40.092Z,92.65
2022-08-14T02:07:55.547Z,91.85
2022-08-14T02:08:53.347Z,91.64
2022-08-14T02:09:41.042Z,92.05
2022-08-14T02:10:46.342Z,92.05
2022-08-14T02:11:41.014Z,91.94
2022-08-14T02:12:40.070Z,91.64
2022-08-14T02:13:39.987Z,92.35
2022-08-14T02:14:39.974Z,92.35
2022-08-14T02:15:41.444Z,91.74
2022-08-14T02:16:39.954Z,90.94
2022-08-14T02:17:39.945Z,92.35
2022-08-14T02:18:39.916Z,92.35
2022-08-14T02:19:39.905Z,92.55
2022-08-14T02:20:39.922Z,90.63
2022-08-14T02:21:43.654Z,90.03
2022-08-14T02:22:47.575Z,91.14
2022-08-14T02:23:40.857Z,91.03
2022-08-14T02:24:45.057Z,91.94
2022-08-14T02:25:40.825Z,90.33
2022-08-14T02:28:18.824Z,91.14
2022-08-14T02:28:26.016Z,92.05
2022-08-14T02:28:56.900Z,92.76
2022-08-14T02:30:00.237Z,92.85
2022-08-14T02:30:40.748Z,92.45
2022-08-14T02:31:43.314Z,92.65
2022-08-14T02:32:39.760Z,92.45
2022-08-14T02:33:39.719Z,93.16
2022-08-14T02:34:39.699Z,92.35
2022-08-14T02:35:40.899Z,92.05
2022-08-14T02:37:03.693Z,92.14
2022-08-14T02:37:48.353Z,92.65
2022-08-14T02:38:40.642Z,92.85
2022-08-14T02:39:39.707Z,92.55
2022-08-14T02:40:40.557Z,92.55
2022-08-14T02:41:43.321Z,93.46
2022-08-14T02:42:40.603Z,94.07
2022-08-14T02:43:46.623Z,94.57
2022-08-14T02:44:40.565Z,94.42
2022-08-14T02:45:44.707Z,94.01
2022-08-14T02:46:41.235Z,94.01
2022-08-14T02:47:39.534Z,93.81
2022-08-14T02:49:01.893Z,93.20
2022-08-14T02:49:40.505Z,93.60
2022-08-14T02:50:39.485Z,93.60
2022-08-14T02:51:39.510Z,93.44
2022-08-14T02:52:57.258Z,93.24
2022-08-14T02:53:42.348Z,92.94
2022-08-14T02:54:39.437Z,92.64
2022-08-14T02:55:39.418Z,92.79
2022-08-14T02:57:15.859Z,92.88
2022-08-14T02:57:40.936Z,92.22
2022-08-14T02:58:41.833Z,92.52
2022-08-14T02:59:43.170Z,92.77
2022-08-14T03:00:39.866Z,93.38
2022-08-14T03:01:50.093Z,93.78
2022-08-14T03:02:56.152Z,93.38
2022-08-14T03:03:40.321Z,92.97
2022-08-14T03:04:39.291Z,92.77
2022-08-14T03:05:41.148Z,92.87
2022-08-14T03:06:57.318Z,93.03
2022-08-14T03:07:40.260Z,93.13
2022-08-14T03:08:39.241Z,92.93
2022-08-14T03:10:24.615Z,93.13
2022-08-14T03:10:42.015Z,92.52
2022-08-14T03:11:44.583Z,93.03
2022-08-14T03:12:39.182Z,92.88
2022-08-14T03:13:39.172Z,93.13
2022-08-14T03:14:39.160Z,92.68
2022-08-14T03:15:39.154Z,92.79
2022-08-14T03:16:39.154Z,92.99
2022-08-14T03:17:41.084Z,92.79
2022-08-14T03:18:40.106Z,91.47
2022-08-14T03:19:39.097Z,91.87
2022-08-14T03:20:39.075Z,91.77
2022-08-14T03:21:39.076Z,91.67
2022-08-14T03:22:41.977Z,91.87
2022-08-14T03:23:39.116Z,90.76
2022-08-14T03:24:39.028Z,91.37
2022-08-14T03:25:39.017Z,90.36
2022-08-14T03:26:39.023Z,90.36
2022-08-14T03:27:47.715Z,90.45
2022-08-14T03:28:39.969Z,90.16
2022-08-14T03:29:38.958Z,91.16
2022-08-14T03:30:41.063Z,91.37
2022-08-14T03:31:38.958Z,91.27
2022-08-14T03:32:38.918Z,91.87
2022-08-14T03:33:40.306Z,91.27
2022-08-14T03:34:48.334Z,90.96
2022-08-14T03:36:00.102Z,91.27
2022-08-14T03:37:39.071Z,92.44
2022-08-14T03:39:11.602Z,93.15
2022-08-14T03:39:11.905Z,94.06
2022-08-14T03:39:39.860Z,94.56
2022-08-14T03:40:38.809Z,94.76
2022-08-14T03:41:38.801Z,94.86
2022-08-14T03:42:38.780Z,94.36
2022-08-14T03:43:38.794Z,94.26
2022-08-14T03:45:19.080Z,93.75
2022-08-14T03:45:46.111Z,93.95
2022-08-14T03:46:54.746Z,94.66
2022-08-14T03:47:55.806Z,94.06
2022-08-14T03:48:40.270Z,94.36
2022-08-14T03:49:42.326Z,94.26
2022-08-14T03:50:38.694Z,93.75
2022-08-14T03:51:38.664Z,94.15
2022-08-14T03:52:41.071Z,94.15
2022-08-14T03:53:39.636Z,94.06
2022-08-14T03:54:38.628Z,94.26
2022-08-14T03:55:38.606Z,93.95
2022-08-14T03:56:38.617Z,93.75
2022-08-14T03:57:38.577Z,93.95
2022-08-14T03:58:38.566Z,94.06
2022-08-14T03:59:38.547Z,94.31
2022-08-14T04:00:43.618Z,94.36
2022-08-14T04:01:41.563Z,93.75
2022-08-14T04:02:47.007Z,93.55
2022-08-14T04:03:39.500Z,93.04
2022-08-14T04:04:38.488Z,92.29
2022-08-14T04:05:43.501Z,92.09
2022-08-14T04:06:47.755Z,92.03
2022-08-14T04:07:39.440Z,91.89
2022-08-14T04:08:39.429Z,91.42
2022-08-14T04:09:38.409Z,91.18
2022-08-14T04:10:38.412Z,91.69
2022-08-14T04:11:38.516Z,91.69
2022-08-14T04:12:38.381Z,92.49
2022-08-14T04:13:39.363Z,93.91
2022-08-14T04:14:38.381Z,92.90
2022-08-14T04:15:56.208Z,91.28
2022-08-14T04:16:39.332Z,91.58
2022-08-14T04:17:38.303Z,91.58
2022-08-14T04:18:38.316Z,91.69
2022-08-14T04:19:38.273Z,91.78
2022-08-14T04:20:51.666Z,91.69
2022-08-14T04:21:49.393Z,92.49
2022-08-14T04:22:39.293Z,92.29
2022-08-14T04:23:38.222Z,92.40
2022-08-14T04:24:39.354Z,93.40
2022-08-14T04:25:38.205Z,93.10
2022-08-14T04:26:43.021Z,92.09
2022-08-14T04:27:48.590Z,92.09
2022-08-14T04:29:08.998Z,91.89
2022-08-14T04:29:39.140Z,91.99
2022-08-14T04:30:38.137Z,92.40
2022-08-14T04:33:01.371Z,92.49
2022-08-14T04:33:10.369Z,92.90
2022-08-14T04:33:39.088Z,93.30
2022-08-14T04:34:38.079Z,93.91
2022-08-14T04:35:55.898Z,93.81
2022-08-14T04:36:39.069Z,92.40
2022-08-14T04:37:38.029Z,93.20
2022-08-14T04:38:39.773Z,93.36
2022-08-14T04:39:38.064Z,93.26
2022-08-14T04:40:40.361Z,93.10
2022-08-14T04:41:37.986Z,93.46
2022-08-14T04:42:38.972Z,92.85
2022-08-14T04:43:39.589Z,92.45
2022-08-14T04:44:37.942Z,92.45
2022-08-14T04:45:37.932Z,92.25
2022-08-14T04:46:56.044Z,91.44
2022-08-14T04:47:38.903Z,89.92
2022-08-14T04:48:43.834Z,90.23
2022-08-14T04:49:56.751Z,90.43
2022-08-14T04:50:44.041Z,90.83
2022-08-14T04:51:55.615Z,91.03
2022-08-14T04:52:38.832Z,91.39
2022-08-14T04:53:42.826Z,92.21
2022-08-14T04:54:38.805Z,91.70
2022-08-14T04:55:37.796Z,91.50
2022-08-14T04:56:37.785Z,91.70
2022-08-14T04:57:37.757Z,91.30
2022-08-14T04:58:37.748Z,90.79
2022-08-14T04:59:37.727Z,90.19
2022-08-14T05:00:38.738Z,91.09
2022-08-14T05:01:39.961Z,91.39
2022-08-14T05:02:37.789Z,90.89
2022-08-14T05:03:37.809Z,90.28
2022-08-14T05:04:39.744Z,92.16
2022-08-14T05:05:38.660Z,92.36
2022-08-14T05:06:39.882Z,92.46
2022-08-14T05:07:54.118Z,92.16
2022-08-14T05:08:57.463Z,91.35
2022-08-14T05:09:38.606Z,91.46
2022-08-14T05:10:42.250Z,90.14
2022-08-14T05:11:38.572Z,90.75
2022-08-14T05:13:10.475Z,89.54
2022-08-14T05:13:59.594Z,88.83
2022-08-14T05:14:53.312Z,88.89
2022-08-14T05:15:39.429Z,90.10
2022-08-14T05:16:37.503Z,89.79
2022-08-14T05:17:43.967Z,88.39
2022-08-14T05:19:24.745Z,88.18
2022-08-14T05:19:44.825Z,87.98
2022-08-14T05:21:57.554Z,87.23
2022-08-14T05:21:58.349Z,86.97
2022-08-14T05:22:38.427Z,86.22
2022-08-14T05:23:37.460Z,89.75
2022-08-14T05:24:37.458Z,90.16
2022-08-14T05:25:37.386Z,88.75
2022-08-14T05:26:37.384Z,90.52
2022-08-14T05:27:37.358Z,89.81
2022-08-14T05:28:37.347Z,90.82
2022-08-14T05:29:37.350Z,90.62
2022-08-14T05:30:37.318Z,90.62
2022-08-14T05:31:39.655Z,90.68
2022-08-14T05:32:38.246Z,90.88
2022-08-14T05:33:37.298Z,91.38
2022-08-14T05:34:37.270Z,91.58
2022-08-14T05:35:37.259Z,90.88
2022-08-14T05:36:38.250Z,91.44
2022-08-14T05:37:37.224Z,91.85
2022-08-14T05:38:38.210Z,92.05
2022-08-14T05:39:37.254Z,92.35
2022-08-14T05:40:37.182Z,92.25
2022-08-14T05:41:52.840Z,92.40
2022-08-14T05:42:38.181Z,92.50
2022-08-14T05:43:41.183Z,92.40
2022-08-14T05:44:37.132Z,92.30
2022-08-14T05:45:37.110Z,92.00
2022-08-14T05:46:37.103Z,91.66
2022-08-14T05:47:39.283Z,91.66
2022-08-14T05:48:42.770Z,91.46
2022-08-14T05:49:38.223Z,91.75
2022-08-14T05:50:37.054Z,91.82
2022-08-14T05:51:37.031Z,91.61
2022-08-14T05:52:39.187Z,91.11
2022-08-14T05:53:37.005Z,91.11
2022-08-14T05:54:38.009Z,91.51
2022-08-14T05:55:36.987Z,92.02
2022-08-14T05:56:37.976Z,91.91
2022-08-14T05:57:36.957Z,91.67
2022-08-14T05:58:41.269Z,91.57
2022-08-14T05:59:39.658Z,91.47
2022-08-14T06:00:39.495Z,91.22
2022-08-14T06:01:36.949Z,91.13
2022-08-14T06:02:36.936Z,90.72
2022-08-14T06:03:36.878Z,90.28
2022-08-14T06:04:36.891Z,90.28
2022-08-14T06:05:38.720Z,89.98
2022-08-14T06:06:38.514Z,89.47
2022-08-14T06:07:36.820Z,89.33
2022-08-14T06:08:41.699Z,89.03
2022-08-14T06:09:40.569Z,88.83
2022-08-14T06:10:36.792Z,88.68
2022-08-14T06:11:36.770Z,88.59
2022-08-14T06:12:55.601Z,88.29
2022-08-14T06:13:45.449Z,88.09
2022-08-14T06:14:37.742Z,87.44
2022-08-14T06:15:36.723Z,87.24
2022-08-14T06:16:36.703Z,87.44
2022-08-14T06:17:38.898Z,87.34
2022-08-14T06:18:37.684Z,87.04
2022-08-14T06:19:36.685Z,87.10
2022-08-14T06:20:36.675Z,86.60
2022-08-14T06:21:36.656Z,86.80
2022-08-14T06:22:36.685Z,87.10
2022-08-14T06:23:36.618Z,87.10
2022-08-14T06:24:36.617Z,86.69
2022-08-14T06:25:37.587Z,86.30
2022-08-14T06:26:37.559Z,86.19
2022-08-14T06:27:36.556Z,86.10
2022-08-14T06:28:36.538Z,86.46
2022-08-14T06:29:36.540Z,86.46
2022-08-14T06:30:46.436Z,86.16
2022-08-14T06:31:37.500Z,86.05
2022-08-14T06:32:39.348Z,85.82
2022-08-14T06:35:01.557Z,85.82
2022-08-14T06:35:03.292Z,85.91
2022-08-14T06:35:37.461Z,85.71
2022-08-14T06:36:36.451Z,85.47
2022-08-14T06:37:36.450Z,84.97
2022-08-14T06:38:36.413Z,85.17
2022-08-14T06:39:37.756Z,84.83
2022-08-14T06:40:36.427Z,84.53
2022-08-14T06:41:57.607Z,84.63
2022-08-14T06:42:37.362Z,84.13
2022-08-14T06:43:36.339Z,84.19
2022-08-14T06:44:36.362Z,84.19
2022-08-14T06:45:36.392Z,83.69
2022-08-14T06:46:37.183Z,83.59
2022-08-14T06:47:36.326Z,83.39
2022-08-14T06:48:36.299Z,83.79
2022-08-14T06:49:42.792Z,83.65
2022-08-14T06:50:37.257Z,83.25
2022-08-14T06:51:44.685Z,83.25
2022-08-14T06:52:37.227Z,83.45
2022-08-14T06:53:36.207Z,82.91
2022-08-14T06:54:36.214Z,82.41
2022-08-14T06:55:37.030Z,82.31
2022-08-14T06:56:36.177Z,82.71
2022-08-14T06:57:36.158Z,82.07
2022-08-14T06:58:36.148Z,82.07
2022-08-14T06:59:36.138Z,81.98
2022-08-14T07:00:36.120Z,81.77
2022-08-14T07:01:36.115Z,81.54
2022-08-14T07:02:36.164Z,80.94
2022-08-14T07:03:36.257Z,80.83
2022-08-14T07:04:37.029Z,80.54
2022-08-14T07:05:36.051Z,80.14
2022-08-14T07:06:46.435Z,80.44
2022-08-14T07:07:37.033Z,80.10
2022-08-14T07:08:36.053Z,80.24
2022-08-14T07:09:43.501Z,79.80
2022-08-14T07:10:36.993Z,79.70
2022-08-14T07:11:35.974Z,79.70
2022-08-14T07:13:01.275Z,79.50
2022-08-14T07:13:36.944Z,79.40
2022-08-14T07:14:35.945Z,79.40
2022-08-14T07:15:40.019Z,79.40
2022-08-14T07:16:36.908Z,79.27
2022-08-14T07:17:36.482Z,79.06
2022-08-14T07:18:35.887Z,78.97
2022-08-14T07:19:35.873Z,78.27
2022-08-14T07:20:35.859Z,78.56
2022-08-14T07:21:35.859Z,78.27
2022-08-14T07:22:56.091Z,78.13
2022-08-14T07:23:40.079Z,77.83
2022-08-14T07:24:35.811Z,77.43
2022-08-14T07:25:37.516Z,77.33
2022-08-14T07:26:35.779Z,77.23
2022-08-14T07:27:36.121Z,76.50
2022-08-14T07:28:36.011Z,76.90
2022-08-14T07:29:36.750Z,76.20
2022-08-14T07:30:35.720Z,76.20
2022-08-14T07:31:36.713Z,76.30
2022-08-14T07:32:35.699Z,75.70
2022-08-14T07:33:35.692Z,76.30
2022-08-14T07:34:40.930Z,76.00
2022-08-14T07:35:42.876Z,75.60
2022-08-14T07:36:36.654Z,75.60
2022-08-14T07:37:35.623Z,75.31
2022-08-14T07:38:37.558Z,75.76
2022-08-14T07:39:35.637Z,75.07
2022-08-14T07:40:35.585Z,75.46
2022-08-14T07:41:36.001Z,75.16
2022-08-14T07:42:35.595Z,75.20
2022-08-14T07:43:35.555Z,74.71
2022-08-14T07:44:45.918Z,74.60
2022-08-14T07:45:36.527Z,75.20
2022-08-14T07:46:35.517Z,75.40
2022-08-14T07:47:35.496Z,75.16
2022-08-14T07:48:35.498Z,74.97
2022-08-14T07:49:35.469Z,74.47
2022-08-14T07:50:37.276Z,74.47
2022-08-14T07:51:37.243Z,74.04
2022-08-14T07:52:35.430Z,73.84
2022-08-14T07:53:36.686Z,73.41
2022-08-14T07:54:35.401Z,73.50
2022-08-14T07:55:35.391Z,72.51
2022-08-14T07:56:44.200Z,72.87
2022-08-14T07:57:36.364Z,72.38
2022-08-14T07:58:39.051Z,73.00
2022-08-14T07:59:41.574Z,72.71
2022-08-14T08:00:36.323Z,72.67
2022-08-14T08:01:35.304Z,72.77
2022-08-14T08:02:35.408Z,72.08
2022-08-14T08:03:36.332Z,72.08
2022-08-14T08:04:35.274Z,72.47
2022-08-14T08:05:35.266Z,71.68
2022-08-14T08:06:35.246Z,71.18
2022-08-14T08:07:35.238Z,71.68
2022-08-14T08:08:35.606Z,71.88
2022-08-14T08:09:35.217Z,72.04
2022-08-14T08:10:57.381Z,71.15
2022-08-14T08:11:37.355Z,71.34
2022-08-14T08:12:35.158Z,70.92
2022-08-14T08:13:35.148Z,71.01
2022-08-14T08:14:56.614Z,70.68
2022-08-14T08:15:36.133Z,70.09
2022-08-14T08:16:35.109Z,70.09
2022-08-14T08:17:42.836Z,70.18
2022-08-14T08:18:36.277Z,69.99
2022-08-14T08:19:36.943Z,70.18
2022-08-14T08:20:35.052Z,70.58
2022-08-14T08:21:35.998Z,69.79
2022-08-14T08:22:35.032Z,69.99
2022-08-14T08:23:40.819Z,70.29
2022-08-14T08:24:36.995Z,70.48
2022-08-14T08:25:40.184Z,71.37
2022-08-14T08:26:35.982Z,70.15
2022-08-14T08:27:34.974Z,69.32
2022-08-14T08:28:34.954Z,68.73
2022-08-14T08:29:34.955Z,68.50
2022-08-14T08:30:34.940Z,67.90
2022-08-14T08:31:36.446Z,67.71
2022-08-14T08:32:34.916Z,67.50
2022-08-14T08:33:37.153Z,67.31
2022-08-14T08:34:35.828Z,67.18
2022-08-14T08:35:47.081Z,67.08
2022-08-14T08:36:35.850Z,66.09
2022-08-14T08:37:39.945Z,66.58
2022-08-14T08:39:18.537Z,68.17
2022-08-14T08:40:01.114Z,66.98
2022-08-14T08:40:35.840Z,66.68
2022-08-14T08:41:35.788Z,66.46
2022-08-14T08:42:38.778Z,65.56
2022-08-14T08:43:35.775Z,65.33
2022-08-14T08:44:34.742Z,66.65
2022-08-14T08:45:35.682Z,65.92
2022-08-14T08:46:35.782Z,66.22
2022-08-14T08:47:34.713Z,64.74
2022-08-14T08:48:36.444Z,65.17
2022-08-14T08:49:36.397Z,65.73
2022-08-14T08:51:06.898Z,64.94
2022-08-14T08:52:05.929Z,65.43
2022-08-14T08:53:05.933Z,65.43
2022-08-14T08:54:05.907Z,65.03
2022-08-14T08:55:05.889Z,65.33
2022-08-14T08:56:05.879Z,64.81
2022-08-14T08:57:05.859Z,64.31
2022-08-14T08:58:12.669Z,63.92
2022-08-14T08:59:06.830Z,64.38
2022-08-14T09:00:09.964Z,64.74
2022-08-14T09:01:06.878Z,63.43
2022-08-14T09:02:06.749Z,62.93
2022-08-14T09:03:05.794Z,61.82
2022-08-14T09:04:07.656Z,61.52
2022-08-14T09:05:06.770Z,62.57
2022-08-14T09:06:23.259Z,61.19
2022-08-14T09:07:10.265Z,59.91
2022-08-14T09:08:05.724Z,59.71
2022-08-14T09:09:06.711Z,61.32
2022-08-14T09:10:05.713Z,60.24
2022-08-14T09:11:19.233Z,59.34
2022-08-14T09:12:06.663Z,60.27
2022-08-14T09:13:06.664Z,61.85
2022-08-14T09:14:05.638Z,60.93
2022-08-14T09:15:09.047Z,61.52
2022-08-14T09:16:18.595Z,60.80
2022-08-14T09:17:06.595Z,60.50
2022-08-14T09:18:05.589Z,59.19
2022-08-14T09:19:05.568Z,59.29
2022-08-14T09:20:05.558Z,57.51
2022-08-14T09:21:05.579Z,58.11
2022-08-14T09:22:34.970Z,57.61
2022-08-14T09:23:06.519Z,58.11
2022-08-14T09:24:27.986Z,59.06
2022-08-14T09:25:07.380Z,58.37
2022-08-14T09:26:21.054Z,58.18
2022-08-14T09:27:06.828Z,57.29
2022-08-14T09:28:05.458Z,58.28
2022-08-14T09:29:05.433Z,57.65
2022-08-14T09:30:31.710Z,55.56
2022-08-14T09:31:07.371Z,58.02
2022-08-14T09:32:58.276Z,55.93
2022-08-14T09:33:11.244Z,54.25
2022-08-14T09:34:19.766Z,55.53
2022-08-14T09:35:08.420Z,55.33
2022-08-14T09:36:05.347Z,54.94
2022-08-14T09:37:06.138Z,55.53
2022-08-14T09:38:05.319Z,55.63
2022-08-14T09:39:06.308Z,56.32
2022-08-14T09:40:05.367Z,56.02
2022-08-14T09:41:05.278Z,55.63
2022-08-14T09:42:21.853Z,56.00
2022-08-14T09:43:06.250Z,55.21
2022-08-14T09:44:06.474Z,55.58
2022-08-14T09:45:08.841Z,54.79
2022-08-14T09:46:05.211Z,55.38
2022-08-14T09:47:05.203Z,54.89
2022-08-14T09:48:05.192Z,54.13
2022-08-14T09:49:05.173Z,55.46
2022-08-14T09:50:05.162Z,56.25
2022-08-14T09:51:45.076Z,55.66
2022-08-14T09:52:35.427Z,56.15
2022-08-14T09:54:12.799Z,55.36
2022-08-14T09:54:36.353Z,55.16
2022-08-14T09:55:36.763Z,55.83
2022-08-14T09:56:35.367Z,55.24
2022-08-14T09:57:34.358Z,55.14
2022-08-14T09:58:34.338Z,54.25
2022-08-14T09:59:36.326Z,54.52
2022-08-14T10:00:35.268Z,54.13
2022-08-14T10:01:35.240Z,53.76
2022-08-14T10:02:34.523Z,54.25
2022-08-14T10:03:34.429Z,55.73
2022-08-14T10:04:40.153Z,54.33
2022-08-14T10:05:39.068Z,53.83
2022-08-14T10:06:35.182Z,53.44
2022-08-14T10:07:34.236Z,53.44
2022-08-14T10:08:34.213Z,53.02
2022-08-14T10:09:35.468Z,52.82
2022-08-14T10:10:35.148Z,52.62
2022-08-14T10:11:34.880Z,51.93
2022-08-14T10:12:34.174Z,52.72
2022-08-14T10:13:42.823Z,53.70
2022-08-14T10:14:36.999Z,52.62
2022-08-14T10:15:34.117Z,53.51
2022-08-14T10:16:35.100Z,52.60
2022-08-14T10:17:38.836Z,52.28
2022-08-14T10:18:34.087Z,51.40
2022-08-14T10:19:35.819Z,51.03
2022-08-14T10:20:40.891Z,51.72
2022-08-14T10:21:38.874Z,51.98
2022-08-14T10:23:14.762Z,51.20
2022-08-14T10:23:35.470Z,51.42
2022-08-14T10:24:37.263Z,50.93
2022-08-14T10:25:34.133Z,51.12
2022-08-14T10:26:33.981Z,51.42
2022-08-14T10:27:33.980Z,51.79
2022-08-14T10:29:03.426Z,50.34
2022-08-14T10:29:36.119Z,51.81
2022-08-14T10:30:33.933Z,50.02
2022-08-14T10:31:44.571Z,52.08
2022-08-14T10:32:40.244Z,51.03
2022-08-14T10:33:34.895Z,52.33
2022-08-14T10:34:35.717Z,53.02
2022-08-14T10:35:33.865Z,51.74
2022-08-14T10:36:37.065Z,51.47
2022-08-14T10:37:34.847Z,51.18
2022-08-14T10:38:33.833Z,51.18
2022-08-14T10:39:33.836Z,52.16
2022-08-14T10:40:37.935Z,50.66
2022-08-14T10:41:34.788Z,51.64
2022-08-14T10:42:34.798Z,50.63
2022-08-14T10:43:33.758Z,51.62
2022-08-14T10:44:33.751Z,51.72
2022-08-14T10:45:33.839Z,51.22
2022-08-14T10:47:41.066Z,50.83
2022-08-14T10:47:41.511Z,51.10
2022-08-14T10:48:36.947Z,50.90
2022-08-14T10:49:33.688Z,50.42
2022-08-14T10:50:33.683Z,49.70
2022-08-14T10:51:34.142Z,50.24
2022-08-14T10:52:33.819Z,48.16
2022-08-14T10:53:33.634Z,48.03
2022-08-14T10:54:36.236Z,47.16
2022-08-14T10:55:34.620Z,45.12
2022-08-14T10:56:34.006Z,46.98
2022-08-14T10:57:33.596Z,46.61
2022-08-14T10:58:34.310Z,47.03
2022-08-14T10:59:36.149Z,47.13
2022-08-14T11:00:35.740Z,48.40
2022-08-14T11:01:40.967Z,48.38
2022-08-14T11:02:44.745Z,48.57
2022-08-14T11:03:35.962Z,46.66
2022-08-14T11:04:37.543Z,48.65
2022-08-14T11:05:33.489Z,48.67
2022-08-14T11:06:33.479Z,48.82
2022-08-14T11:07:33.460Z,47.83
2022-08-14T11:08:33.452Z,47.93
2022-08-14T11:09:33.432Z,46.73
2022-08-14T11:10:33.422Z,47.42
2022-08-14T11:11:37.295Z,46.63
2022-08-14T11:12:40.465Z,47.74
2022-08-14T11:13:34.522Z,46.73
2022-08-14T11:14:33.374Z,46.51
2022-08-14T11:15:33.354Z,45.68
2022-08-14T11:16:33.355Z,45.76
2022-08-14T11:17:33.335Z,44.95
2022-08-14T11:18:40.225Z,44.44
2022-08-14T11:19:34.306Z,43.44
2022-08-14T11:20:33.300Z,43.03
2022-08-14T11:21:34.314Z,43.62
2022-08-14T11:23:03.017Z,42.22
2022-08-14T11:23:38.282Z,43.49
2022-08-14T11:24:55.048Z,44.55
2022-08-14T11:25:41.349Z,43.95
2022-08-14T11:26:34.229Z,45.02
2022-08-14T11:27:35.314Z,44.41
2022-08-14T11:28:47.149Z,41.66
2022-08-14T11:29:35.377Z,43.02
2022-08-14T11:30:51.226Z,44.27
2022-08-14T11:31:38.525Z,43.47
2022-08-14T11:32:34.143Z,42.88
2022-08-14T11:33:34.087Z,42.38
2022-08-14T11:34:34.860Z,40.83
2022-08-14T11:35:44.206Z,42.61
2022-08-14T11:37:02.477Z,42.34
2022-08-14T11:37:40.555Z,42.75
2022-08-14T11:38:34.077Z,42.01
2022-08-14T11:39:35.050Z,43.44
2022-08-14T11:40:33.048Z,43.85
2022-08-14T11:41:33.037Z,45.42
2022-08-14T11:42:56.795Z,44.24
2022-08-14T11:43:34.008Z,43.44
2022-08-14T11:44:46.221Z,43.63
2022-08-14T11:45:33.979Z,44.52
2022-08-14T11:46:37.774Z,42.93
2022-08-14T11:47:35.646Z,43.32
2022-08-14T11:49:02.293Z,41.96
2022-08-14T11:49:34.308Z,43.10
2022-08-14T11:50:36.796Z,42.99
2022-08-14T11:51:36.429Z,43.26
2022-08-14T11:52:33.903Z,41.58
2022-08-14T11:53:32.883Z,42.26
2022-08-14T11:54:34.221Z,41.87
2022-08-14T11:55:32.854Z,42.63
2022-08-14T11:56:32.854Z,40.37
2022-08-14T11:57:32.842Z,39.98
2022-08-14T11:58:32.836Z,39.88
2022-08-14T11:59:33.517Z,40.35
2022-08-14T12:00:35.032Z,39.67
2022-08-14T12:01:33.788Z,37.89
2022-08-14T12:02:45.888Z,38.28
2022-08-14T12:03:46.107Z,38.28
2022-08-14T12:04:33.943Z,38.85
2022-08-14T12:05:32.750Z,37.87
2022-08-14T12:06:39.620Z,36.71
2022-08-14T12:07:33.753Z,37.85
2022-08-14T12:08:32.711Z,37.56
2022-08-14T12:09:32.694Z,37.54
2022-08-14T12:10:41.046Z,36.67
2022-08-14T12:11:33.662Z,35.89
2022-08-14T12:12:35.568Z,38.03
2022-08-14T12:13:32.643Z,38.01
2022-08-14T12:14:36.025Z,37.92
2022-08-14T12:15:33.626Z,37.02
2022-08-14T12:16:32.605Z,37.30
2022-08-14T12:17:47.308Z,37.59
2022-08-14T12:18:33.575Z,35.94
2022-08-14T12:19:33.712Z,36.52
2022-08-14T12:20:32.771Z,36.63
2022-08-14T12:21:32.540Z,38.11
2022-08-14T12:22:32.529Z,38.40
2022-08-14T12:23:32.518Z,37.92
2022-08-14T12:24:40.029Z,36.75
2022-08-14T12:25:34.606Z,36.77
2022-08-14T12:26:41.047Z,36.98
2022-08-14T12:27:33.481Z,37.46
2022-08-14T12:28:34.056Z,38.64
2022-08-14T12:29:33.451Z,38.54
2022-08-14T12:30:37.715Z,37.12
2022-08-14T12:31:36.351Z,38.38
2022-08-14T12:32:33.402Z,38.89
2022-08-14T12:33:33.366Z,38.79
2022-08-14T12:34:32.386Z,39.98
2022-08-14T12:35:32.375Z,39.69
2022-08-14T12:36:32.354Z,38.81
2022-08-14T12:37:32.346Z,39.39
2022-08-14T12:38:32.325Z,39.51
2022-08-14T12:39:39.734Z,41.17
2022-08-14T12:40:33.305Z,39.98
2022-08-14T12:41:34.387Z,39.78
2022-08-14T12:42:34.991Z,40.66
2022-08-14T12:43:33.268Z,40.55
2022-08-14T12:44:32.290Z,41.50
2022-08-14T12:45:32.239Z,40.42
2022-08-14T12:46:32.232Z,40.48
2022-08-14T12:47:32.440Z,39.88
2022-08-14T12:48:32.666Z,38.89
2022-08-14T12:49:32.201Z,36.34
2022-08-14T12:50:32.182Z,36.28
2022-08-14T12:51:32.162Z,37.46
2022-08-14T12:52:36.102Z,38.95
2022-08-14T12:53:36.266Z,39.24
2022-08-14T12:54:33.139Z,37.99